Terminal Aerodrome Forecast
Issued by NWS Upton, NY

Home | Current Version | Previous Version | Text Only | Print | Product List | Glossary On
Versions: 1 2 3 4 5 6 7 8 9 10 11 12 13 14 15 16 17 18 19 20 21 22 23 24 25 26 27 28 29 30 31
000
FTUS41 KOKX 260530
TAFEWR
TAF
KEWR 260530Z 2606/2712 04013KT 5SM -RA BR OVC004
     FM260800 03010KT 1SM -RA BR OVC004
      TEMPO 2610/2613 1/2SM FG BKN002 OVC004
     FM261500 03008KT 3SM BR OVC007
     FM261900 02007KT 6SM BR OVC008
     FM270000 02004KT 3SM BR OVC005
     FM270200 VRB03KT 3/4SM BR OVC003=

USA.gov is the U.S. government's official web portal to all federal, state and local government web resources and services.